Time;durP1;ratioP1;P1;durP2;ratioP2;P2;SDS_P1;SDS_P2;PMS_P1;PMS_P2;Temp;Humidity;BMP_temperature;BMP_pressure;BME280_temperature;BME280_humidity;BME280_pressure;Samples;Min_cycle;Max_cycle;Signal;HPM_P1;HPM_P2
2021/08/18 06:27:02;;;;;;;36.78;13.55;;;;;;;25.23;51.04;99176.19;4917137;29;20442;-88
2021/08/18 06:29:31;;;;;;;37.70;12.80;;;;;;;25.37;50.90;99181.66;4919974;29;20051;-86
2021/08/18 06:31:58;;;;;;;34.55;14.05;;;;;;;25.47;50.72;99177.16;4907517;29;20075;-81
2021/08/18 06:34:26;;;;;;;33.33;13.20;;;;;;;25.51;49.64;99175.09;4907783;29;20048;-94
2021/08/18 06:36:54;;;;;;;40.40;13.15;;;;;;;25.59;49.90;99182.19;4906928;29;20040;-92
2021/08/18 06:39:22;;;;;;;31.35;11.75;;;;;;;25.65;49.43;99172.13;4917492;29;20047;-91
2021/08/18 06:41:49;;;;;;;31.30;12.88;;;;;;;25.70;50.08;99170.88;4917953;29;20519;-86
2021/08/18 06:44:17;;;;;;;26.92;11.38;;;;;;;25.75;49.53;99176.00;4932575;29;20099;-93
2021/08/18 06:46:44;;;;;;;35.88;12.40;;;;;;;25.73;49.70;99173.63;4906021;29;20546;-84
2021/08/18 06:49:12;;;;;;;32.33;11.95;;;;;;;25.82;49.24;99173.13;4919774;29;20050;-84
2021/08/18 06:51:40;;;;;;;36.05;11.52;;;;;;;25.91;49.20;99164.25;4919011;29;20036;-95
2021/08/18 06:54:07;;;;;;;33.28;12.50;;;;;;;25.94;48.45;99141.78;4922201;29;20048;-92
2021/08/18 06:56:35;;;;;;;28.40;12.18;;;;;;;26.05;48.63;99146.44;4920666;29;20051;-96
2021/08/18 06:59:03;;;;;;;31.73;12.77;;;;;;;26.26;47.74;99174.16;4922445;29;20072;-96
2021/08/18 07:01:54;;;;;;;25.48;12.43;;;;;;;26.21;47.62;99152.19;4921764;29;20047;-93
2021/08/18 07:05:08;;;;;;;33.08;12.18;;;;;;;26.40;47.90;99170.34;4929010;29;20055;-81
2021/08/18 07:07:35;;;;;;;31.25;12.82;;;;;;;26.30;48.25;99132.06;4902557;29;20056;-96
2021/08/18 07:10:01;;;;;;;;;;;;;;;26.61;47.72;99167.22;4893407;29;20056;-78
2021/08/18 07:12:30;;;;;;;31.77;13.02;;;;;;;26.62;47.66;99154.81;4877907;29;19923;-77
2021/08/18 07:14:57;;;;;;;43.70;14.10;;;;;;;26.60;48.25;99162.84;4876322;29;20053;-77
2021/08/18 07:17:26;;;;;;;30.23;13.20;;;;;;;26.61;48.27;99158.81;4877342;29;20067;-93
2021/08/18 07:19:54;;;;;;;36.75;12.82;;;;;;;26.62;48.26;99151.19;4873295;29;20045;-93
2021/08/18 07:22:24;;;;;;;52.22;14.35;;;;;;;26.58;47.99;99148.44;4850374;29;20056;-95
2021/08/18 07:24:51;;;;;;;36.80;13.77;;;;;;;26.65;47.47;99150.34;4871045;29;20057;-91
2021/08/18 07:27:20;;;;;;;35.47;12.65;;;;;;;26.76;48.60;99148.16;4875305;29;20045;-93
2021/08/18 07:29:47;;;;;;;27.98;13.63;;;;;;;26.89;48.14;99151.16;4876111;29;20350;-94
2021/08/18 07:32:14;;;;;;;31.27;12.35;;;;;;;27.05;47.73;99161.66;4873934;29;20160;-80
2021/08/18 07:34:42;;;;;;;33.10;12.50;;;;;;;27.25;46.89;99161.72;4873378;29;20109;-94
2021/08/18 07:37:09;;;;;;;28.33;11.80;;;;;;;27.41;45.79;99167.44;4875918;29;20057;-94
2021/08/18 07:39:35;;;;;;;31.00;12.43;;;;;;;27.62;45.00;99161.41;4870035;29;20132;-86
2021/08/18 07:42:02;;;;;;;36.08;13.68;;;;;;;27.83;44.05;99148.16;4871167;29;20130;-85
2021/08/18 07:44:27;;;;;;;101.85;15.75;;;;;;;28.03;44.38;99154.53;4894127;29;20469;-77
2021/08/18 07:46:54;;;;;;;40.95;12.57;;;;;;;28.22;43.63;99152.13;4911350;29;20045;-91
2021/08/18 07:49:20;;;;;;;28.60;12.45;;;;;;;28.36;43.50;99145.38;4909807;29;20421;-82
2021/08/18 07:51:46;;;;;;;46.42;13.82;;;;;;;28.49;42.86;99147.06;4905494;29;20048;-78
2021/08/18 07:54:12;;;;;;;41.95;16.65;;;;;;;28.55;43.38;99156.56;4906455;29;20040;-84
2021/08/18 07:56:38;;;;;;;51.35;27.50;;;;;;;28.57;43.49;99153.28;4902262;29;20044;-92
2021/08/18 07:59:04;;;;;;;87.47;43.30;;;;;;;28.61;43.00;99162.47;4913791;29;20052;-79
2021/08/18 08:01:30;;;;;;;47.33;18.20;;;;;;;28.60;42.32;99149.59;4906021;29;20051;-79
2021/08/18 08:03:56;;;;;;;41.00;15.10;;;;;;;28.61;42.96;99154.03;4900923;29;20131;-93
2021/08/18 08:06:23;;;;;;;44.17;19.30;;;;;;;28.64;43.26;99141.88;4911617;29;20099;-79
2021/08/18 08:08:49;;;;;;;78.78;15.45;;;;;;;28.60;43.43;99146.78;4924732;29;20138;-80
2021/08/18 08:11:18;;;;;;;34.85;17.27;;;;;;;28.65;43.14;99146.28;4925036;29;20035;-80
2021/08/18 08:13:44;;;;;;;50.58;24.55;;;;;;;28.73;42.91;99139.22;4920599;29;20020;-80
2021/08/18 08:16:10;;;;;;;39.28;16.40;;;;;;;28.90;42.85;99148.44;4927366;29;20047;-80
2021/08/18 09:37:39;;;;;;;37.90;14.25;;;;;;;30.18;39.44;99098.94;5161988;23;20052;-90
2021/08/18 09:40:27;;;;;;;51.45;13.65;;;;;;;30.15;39.79;99087.75;4916412;29;20092;-95
2021/08/18 09:43:25;;;;;;;57.97;13.45;;;;;;;30.19;39.55;99105.38;4909170;29;20036;-84
2021/08/18 09:45:58;;;;;;;28.27;13.50;;;;;;;30.27;40.14;99111.59;4906717;29;20044;-95
2021/08/18 09:48:32;;;;;;;36.83;13.25;;;;;;;30.26;40.27;99099.50;4908450;29;20032;-80
2021/08/18 09:51:04;;;;;;;29.05;14.40;;;;;;;30.29;40.65;99103.44;4904498;29;20139;-89
2021/08/18 09:53:39;;;;;;;23.02;12.40;;;;;;;30.27;40.60;99094.66;4908406;29;20044;-80
2021/08/18 09:56:10;;;;;;;30.42;13.10;;;;;;;30.31;40.30;99107.41;4909505;29;20044;-80
2021/08/18 09:58:47;;;;;;;27.15;13.60;;;;;;;30.26;40.46;99085.38;4917356;29;20071;-80
2021/08/18 10:01:18;;;;;;;24.88;12.20;;;;;;;30.32;40.69;99094.06;4906665;29;20048;-93
2021/08/18 10:03:47;;;;;;;26.48;12.93;;;;;;;30.36;39.32;99094.75;4917394;29;20063;-84
2021/08/18 10:06:14;;;;;;;30.20;12.55;;;;;;;30.37;39.45;99090.69;4913388;29;20460;-80
2021/08/18 10:08:42;;;;;;;26.70;12.23;;;;;;;30.40;38.30;99084.94;4916327;29;20044;-87
2021/08/18 10:11:14;;;;;;;31.27;12.38;;;;;;;30.48;39.38;99091.13;4915515;29;20532;-77
2021/08/18 10:13:42;;;;;;;31.20;13.30;;;;;;;30.50;39.04;99080.19;4899433;29;20044;-79
2021/08/18 10:16:09;;;;;;;31.90;12.88;;;;;;;30.53;38.36;99078.47;4898060;29;20135;-81
2021/08/18 10:18:46;;;;;;;24.42;12.07;;;;;;;30.59;38.82;99073.81;4904518;29;20064;-91
2021/08/18 10:21:23;;;;;;;34.97;13.27;;;;;;;30.63;39.36;99058.38;4898155;29;20560;-78
2021/08/18 10:23:59;;;;;;;19.70;12.05;;;;;;;30.65;38.86;99057.91;4907489;29;20720;-80
2021/08/18 10:26:41;;;;;;;29.65;12.32;;;;;;;30.69;38.90;99060.59;4888009;29;20052;-78
2021/08/18 10:29:19;;;;;;;33.10;12.48;;;;;;;30.76;39.33;99054.69;4906229;29;20060;-82
2021/08/18 10:31:47;;;;;;;22.63;12.50;;;;;;;30.84;38.53;99056.84;4901074;29;20040;-80
2021/08/18 10:34:21;;;;;;;30.70;12.48;;;;;;;30.86;38.56;99051.53;4905298;29;20040;-77
2021/08/18 10:36:51;;;;;;;29.15;12.77;;;;;;;30.94;38.72;99043.59;4903695;29;20552;-77
2021/08/18 10:39:25;;;;;;;26.58;12.85;;;;;;;31.01;37.97;99048.97;4903296;29;20092;-81
2021/08/18 10:42:09;;;;;;;26.83;12.57;;;;;;;31.01;37.63;99043.34;4904697;29;20104;-79
2021/08/18 10:44:43;;;;;;;20.80;12.18;;;;;;;31.08;36.92;99037.41;4899495;29;20044;-78
2021/08/18 10:47:13;;;;;;;22.30;12.82;;;;;;;31.20;35.78;99035.78;4897426;29;20405;-76
2021/08/18 10:49:40;;;;;;;115.75;14.55;;;;;;;31.32;36.32;99043.41;4897644;29;20123;-84
2021/08/18 10:52:06;;;;;;;29.20;12.60;;;;;;;31.33;36.81;99028.06;4906772;29;20040;-84
2021/08/18 10:54:33;;;;;;;25.10;12.52;;;;;;;31.49;36.49;99037.53;4893764;29;20115;-82
2021/08/18 10:57:00;;;;;;;22.08;12.85;;;;;;;31.43;36.07;99030.94;4902281;29;20045;-86
2021/08/18 10:59:35;;;;;;;41.42;13.82;;;;;;;31.39;35.74;99036.72;4898488;29;20045;-91
2021/08/18 11:02:07;;;;;;;26.02;12.82;;;;;;;31.39;36.92;99028.25;4900312;29;20080;-90
2021/08/18 11:04:55;;;;;;;32.05;13.65;;;;;;;31.51;36.41;99027.34;4901230;29;20049;-90
2021/08/18 11:08:03;;;;;;;45.03;13.65;;;;;;;31.48;36.61;99030.31;4901156;29;20049;-91
2021/08/18 11:10:32;;;;;;;24.75;13.43;;;;;;;31.30;36.73;99031.00;4904350;29;20044;-90
2021/08/18 11:13:00;;;;;;;27.40;13.23;;;;;;;31.28;37.07;99034.25;4905038;29;20127;-92
2021/08/18 11:15:26;;;;;;;27.40;13.20;;;;;;;31.46;36.14;99025.16;4906072;29;20055;-84
2021/08/18 11:17:55;;;;;;;32.85;15.20;;;;;;;31.39;36.71;99031.09;4902714;29;20052;-88
2021/08/18 11:20:23;;;;;;;21.13;12.77;;;;;;;31.20;36.92;99018.06;4902811;29;20056;-92
2021/08/18 11:22:56;;;;;;;23.38;13.32;;;;;;;30.92;37.24;99020.69;4894397;29;20608;-92
2021/08/18 11:25:23;;;;;;;23.98;12.88;;;;;;;30.80;37.33;99011.03;4907408;29;20052;-90
2021/08/18 11:27:50;;;;;;;31.63;13.13;;;;;;;30.92;36.94;99006.56;4893867;29;20040;-90
2021/08/18 11:30:25;;;;;;;21.48;12.82;;;;;;;31.17;36.81;99011.28;4908409;29;20044;-96
2021/08/18 11:32:52;;;;;;;24.92;13.05;;;;;;;31.24;36.29;99007.41;4904522;29;20509;-89
2021/08/18 11:35:31;;;;;;;;;;;;;;;31.39;36.52;99000.00;4899630;29;20048;-92
2021/08/18 11:38:10;;;;;;;23.60;12.52;;;;;;;31.48;36.24;98997.22;4911015;29;20406;-86
2021/08/18 11:40:42;;;;;;;24.83;13.80;;;;;;;31.58;35.74;98993.16;4910046;29;20043;-95
2021/08/18 11:43:09;;;;;;;21.35;12.18;;;;;;;31.36;35.11;98995.28;4911495;29;20501;-80
2021/08/18 11:45:37;;;;;;;29.48;13.65;;;;;;;31.20;35.20;98995.47;4905956;29;20044;-82
2021/08/18 11:48:12;;;;;;;31.33;17.77;;;;;;;31.30;34.07;98982.97;4915511;29;20040;-88
2021/08/18 11:50:52;;;;;;;20.17;10.88;;;;;;;31.56;33.98;98990.03;4898751;29;20103;-82
2021/08/18 11:53:21;;;;;;;44.90;12.95;;;;;;;31.43;34.78;98977.28;4916043;29;20044;-80
2021/08/18 11:55:58;;;;;;;21.02;12.38;;;;;;;31.50;34.86;98986.25;4898653;29;20050;-80
2021/08/18 11:58:34;;;;;;;25.83;11.68;;;;;;;31.35;34.68;98994.47;4915678;29;20040;-81
2021/08/18 12:01:06;;;;;;;27.25;11.30;;;;;;;31.23;35.37;98983.25;4915620;29;20048;-80
2021/08/18 12:03:33;;;;;;;23.05;11.45;;;;;;;31.21;34.86;98980.09;4898676;29;20046;-82
2021/08/18 12:06:04;;;;;;;22.83;11.27;;;;;;;31.27;34.98;98978.25;4898504;29;20048;-82
2021/08/18 12:08:36;;;;;;;25.20;10.88;;;;;;;31.23;35.59;98974.78;4915347;29;20582;-81
2021/08/18 12:11:03;;;;;;;23.80;10.75;;;;;;;31.42;35.66;98967.19;4915528;29;20058;-81
2021/08/18 12:13:47;;;;;;;22.75;12.18;;;;;;;31.32;35.53;98966.34;4915342;29;20039;-82
2021/08/18 12:16:29;;;;;;;46.25;23.27;;;;;;;31.16;35.90;98963.72;4915542;29;20058;-82
2021/08/18 12:19:21;;;;;;;77.03;15.73;;;;;;;31.04;36.42;98956.94;4915573;29;20143;-83
2021/08/18 12:22:05;;;;;;;33.60;15.25;;;;;;;31.26;35.66;98959.72;4907202;29;20064;-82
2021/08/18 12:24:32;;;;;;;26.70;13.48;;;;;;;31.52;36.00;98961.16;4898684;29;20148;-83
2021/08/18 12:26:59;;;;;;;;;;;;;;;31.76;35.06;98952.91;4915761;29;20044;-82
2021/08/18 12:29:28;;;;;;;23.50;11.20;;;;;;;31.86;35.63;98953.72;4915291;29;19923;-82
2021/08/18 12:32:04;;;;;;;26.80;14.20;;;;;;;31.81;35.19;98954.31;4915173;29;20096;-90
2021/08/18 12:34:41;;;;;;;27.52;11.98;;;;;;;31.90;34.89;98953.59;4914982;29;20510;-90
2021/08/18 12:37:18;;;;;;;21.88;11.73;;;;;;;31.96;34.60;98929.88;4898042;29;20082;-90
2021/08/18 12:39:53;;;;;;;24.80;11.13;;;;;;;32.20;34.07;98937.78;4915119;29;20040;-81
2021/08/18 12:42:26;;;;;;;23.17;11.45;;;;;;;32.22;34.42;98935.25;4898091;29;20416;-82
2021/08/18 12:45:09;;;;;;;25.67;13.65;;;;;;;32.31;33.91;98943.75;4913205;29;20071;-82
2021/08/18 12:47:40;;;;;;;23.27;12.10;;;;;;;32.38;33.28;98929.28;4896390;29;20040;-89
2021/08/18 12:52:36;;;;;;;22.63;12.15;;;;;;;32.18;34.33;98931.78;4899893;29;20494;-81
2021/08/18 12:55:03;;;;;;;25.35;12.65;;;;;;;32.27;34.03;98929.75;4900097;29;20569;-85
2021/08/18 12:57:29;;;;;;;24.27;12.73;;;;;;;32.35;33.73;98907.63;4900123;29;20139;-84
2021/08/18 12:59:57;;;;;;;25.67;12.18;;;;;;;32.57;33.82;98921.59;4900686;29;20052;-84
2021/08/18 13:02:23;;;;;;;19.77;10.57;;;;;;;32.50;32.85;98905.72;4885215;29;20052;-84
2021/08/18 13:04:49;;;;;;;21.70;9.82;;;;;;;32.56;33.21;98913.59;4900648;29;20605;-83
2021/08/18 13:07:15;;;;;;;;;;;;;;;32.61;32.67;98910.13;4903092;29;20059;-84
2021/08/18 13:09:41;;;;;;;25.80;12.80;;;;;;;32.65;32.65;98902.25;4901823;29;20013;-84
2021/08/18 13:12:07;;;;;;;19.98;9.63;;;;;;;32.58;32.44;98894.09;4902604;29;20453;-83
2021/08/18 13:14:34;;;;;;;15.90;10.07;;;;;;;32.68;32.45;98904.94;4900088;29;20083;-83
2021/08/18 13:17:01;;;;;;;17.30;9.30;;;;;;;32.49;32.64;98890.03;4899763;29;20048;-83
2021/08/18 13:19:29;;;;;;;22.95;9.98;;;;;;;32.47;32.47;98898.19;4899959;29;20116;-84
2021/08/18 13:21:55;;;;;;;20.50;10.75;;;;;;;32.36;32.67;98880.09;4909398;29;20063;-83
2021/08/18 13:24:21;;;;;;;17.13;10.68;;;;;;;32.46;32.75;98895.84;4902959;29;20051;-85
2021/08/18 13:26:48;;;;;;;15.55;10.05;;;;;;;32.39;32.68;98888.44;4899523;29;20518;-84
2021/08/18 13:29:16;;;;;;;27.33;10.13;;;;;;;32.31;32.59;98894.88;4900828;29;20040;-83
2021/08/18 13:31:42;;;;;;;52.20;10.73;;;;;;;32.15;33.54;98888.25;4899326;29;20055;-84
2021/08/18 13:34:08;;;;;;;;;;;;;;;32.00;34.39;98907.13;4900393;29;20033;-83
2021/08/18 13:36:36;;;;;;;52.47;11.75;;;;;;;31.74;34.71;98900.91;4901081;29;20467;-83
2021/08/18 13:39:04;;;;;;;20.70;11.10;;;;;;;31.53;35.33;98903.38;4899740;29;20057;-84
2021/08/18 13:41:31;;;;;;;29.63;11.55;;;;;;;31.28;35.49;98900.75;4899524;29;20084;-80
2021/08/18 13:43:59;;;;;;;28.58;11.38;;;;;;;31.06;36.38;98895.94;4899173;29;20040;-79
2021/08/18 13:46:25;;;;;;;25.88;11.27;;;;;;;30.89;37.01;98886.13;4898945;29;20501;-84
2021/08/18 13:48:54;;;;;;;23.05;11.63;;;;;;;30.74;37.47;98885.06;4899163;29;20055;-79
2021/08/18 13:51:20;;;;;;;19.13;11.45;;;;;;;30.62;37.88;98883.88;4899019;29;20463;-78
2021/08/18 13:53:46;;;;;;;16.48;11.38;;;;;;;30.52;37.64;98890.72;4899242;29;20047;-79
2021/08/18 13:56:12;;;;;;;19.45;11.80;;;;;;;30.35;38.07;98892.94;4898753;29;20059;-79
2021/08/18 13:58:38;;;;;;;28.73;12.60;;;;;;;30.25;38.19;98908.22;4899141;29;20044;-80
2021/08/18 14:01:04;;;;;;;138.32;27.08;;;;;;;30.10;39.24;98921.97;4898401;29;20041;-77
2021/08/18 14:03:30;;;;;;;30.50;15.60;;;;;;;29.98;39.19;98926.44;4899034;29;20041;-80
2021/08/18 14:05:57;;;;;;;29.83;14.00;;;;;;;29.84;39.15;98936.16;4899067;29;20059;-91
2021/08/18 14:08:23;;;;;;;36.08;13.60;;;;;;;29.78;39.58;99010.44;4905776;29;20131;-79
2021/08/18 14:21:01;;;;;;;39.73;16.57;;;;;;;21.81;87.53;99202.63;4917745;29;20095;-87
2021/08/18 14:23:31;;;;;;;49.08;18.70;;;;;;;21.54;86.62;99204.09;4917446;29;20048;-87
2021/08/18 14:26:00;;;;;;;61.92;19.60;;;;;;;21.38;86.07;99145.22;4894008;29;20045;-85
2021/08/18 14:28:26;;;;;;;50.15;19.05;;;;;;;21.40;84.20;99160.34;4899032;29;20176;-89
2021/08/18 14:30:52;;;;;;;32.30;17.85;;;;;;;21.39;81.42;99147.63;4883322;29;20135;-87
2021/08/18 14:35:45;;;;;;;34.23;17.97;;;;;;;21.18;80.30;99134.34;4917535;29;20040;-84
2021/08/18 14:38:13;;;;;;;32.08;17.63;;;;;;;21.33;79.79;99149.16;4916972;29;20052;-82
2021/08/18 14:40:39;;;;;;;31.38;15.00;;;;;;;21.47;80.08;99152.03;4917345;29;20040;-81
2021/08/18 14:45:31;;;;;;;25.93;15.33;;;;;;;21.60;76.47;99135.78;4910134;29;20048;-80
2021/08/18 14:47:59;;;;;;;29.58;16.65;;;;;;;21.63;78.13;99134.22;4900137;29;20427;-82
2021/08/18 14:50:25;;;;;;;31.75;15.55;;;;;;;21.67;76.52;99138.59;4915780;29;20047;-84
2021/08/18 14:52:53;;;;;;;32.08;17.40;;;;;;;21.75;78.40;99133.84;4915635;29;20103;-84
2021/08/18 14:55:19;;;;;;;26.60;17.50;;;;;;;21.81;78.08;99149.75;4900073;29;20535;-86
2021/08/18 14:57:45;;;;;;;23.98;16.02;;;;;;;21.92;77.17;99144.25;4898207;29;20456;-82
2021/08/18 15:00:13;;;;;;;33.90;19.53;;;;;;;22.02;79.46;99145.47;4881528;29;20076;-81
2021/08/18 15:02:46;;;;;;;34.38;19.38;;;;;;;22.11;79.74;99140.28;4898434;29;20558;-85
2021/08/18 15:05:15;;;;;;;37.60;19.33;;;;;;;22.17;77.77;99138.75;4898400;29;20582;-85
2021/08/18 15:07:42;;;;;;;37.33;21.52;;;;;;;22.22;78.87;99135.59;4916193;29;20132;-85
2021/08/18 15:10:10;;;;;;;33.58;20.10;;;;;;;22.38;78.55;99145.53;4899994;29;20051;-84
2021/08/18 15:12:36;;;;;;;37.05;19.00;;;;;;;22.48;79.15;99155.88;4915403;29;20039;-82
2021/08/18 15:15:05;;;;;;;32.67;18.35;;;;;;;22.50;77.97;99151.50;4916839;29;20052;-84
2021/08/18 15:17:35;;;;;;;34.92;18.80;;;;;;;22.44;78.00;99146.72;4916758;29;20094;-86
2021/08/18 15:20:10;;;;;;;47.28;19.85;;;;;;;22.55;78.95;99163.44;4899628;29;20088;-83
2021/08/18 15:22:41;;;;;;;38.30;22.20;;;;;;;22.60;79.36;99146.34;4916524;29;20039;-82
2021/08/18 15:25:13;;;;;;;28.98;20.60;;;;;;;22.61;78.47;99148.72;4916717;29;20055;-81
2021/08/18 15:27:55;;;;;;;35.47;22.10;;;;;;;22.60;78.75;99138.78;4916484;29;20113;-90
2021/08/18 15:30:26;;;;;;;32.15;20.90;;;;;;;22.52;77.92;99145.56;4916450;29;20044;-83
2021/08/18 15:32:53;;;;;;;41.55;22.10;;;;;;;22.53;79.02;99138.78;4916629;29;20176;-83
2021/08/18 15:35:21;;;;;;;38.40;23.63;;;;;;;22.45;79.29;99135.22;4916323;29;20044;-81
2021/08/18 15:37:51;;;;;;;43.60;23.85;;;;;;;22.43;79.28;99137.59;4916045;29;20052;-85
2021/08/18 15:40:18;;;;;;;30.17;19.77;;;;;;;22.39;78.83;99149.94;4916073;29;20052;-82
2021/08/18 15:42:44;;;;;;;33.28;20.52;;;;;;;22.27;79.04;99137.16;4909265;29;20402;-83
2021/08/18 15:45:11;;;;;;;29.90;20.15;;;;;;;22.36;78.73;99139.56;4884589;29;20502;-83
2021/08/18 15:47:39;;;;;;;27.10;19.23;;;;;;;22.38;78.87;99139.97;4915824;29;20080;-82
2021/08/18 15:50:09;;;;;;;31.52;19.25;;;;;;;22.32;79.38;99147.09;4899365;29;20039;-82
2021/08/18 15:52:44;;;;;;;34.75;20.35;;;;;;;22.20;79.98;99124.03;4899042;29;20040;-83
2021/08/18 15:55:13;;;;;;;35.70;20.95;;;;;;;22.31;79.61;99132.41;4900225;29;20040;-84
2021/08/18 15:57:39;;;;;;;32.25;20.77;;;;;;;22.32;79.54;99138.75;4910596;29;20040;-84
2021/08/18 16:00:09;;;;;;;37.85;22.20;;;;;;;22.39;79.37;99138.78;4885950;29;20130;-85
2021/08/18 16:02:36;;;;;;;43.55;23.52;;;;;;;22.41;79.22;99144.75;4913920;29;20062;-83
2021/08/18 16:05:03;;;;;;;41.33;19.60;;;;;;;22.38;78.21;99145.53;4897629;29;20072;-84
2021/08/18 16:07:29;;;;;;;38.55;23.67;;;;;;;22.29;79.09;99137.59;4896997;29;20131;-84
2021/08/18 16:09:57;;;;;;;35.95;20.92;;;;;;;22.30;78.86;99147.53;4896801;29;20056;-85
2021/08/18 16:12:23;;;;;;;32.55;20.92;;;;;;;22.34;78.56;99139.16;4896987;29;20480;-86
2021/08/18 16:14:50;;;;;;;37.58;22.58;;;;;;;22.18;79.30;99126.41;4879177;29;20049;-85
2021/08/18 16:17:16;;;;;;;36.47;22.37;;;;;;;22.16;79.29;99114.09;4913142;29;20043;-85
2021/08/18 16:19:43;;;;;;;36.35;24.95;;;;;;;22.13;79.70;99118.44;4914616;29;20260;-86
2021/08/18 16:22:09;;;;;;;32.65;21.80;;;;;;;22.04;79.28;99096.53;4898099;29;20530;-86
2021/08/18 16:24:35;;;;;;;31.70;21.35;;;;;;;22.03;77.95;99083.81;4905683;29;20075;-86
2021/08/18 16:27:01;;;;;;;49.67;23.70;;;;;;;22.08;79.17;99102.09;4896476;29;20094;-85
2021/08/18 16:29:27;;;;;;;34.60;22.63;;;;;;;22.09;79.23;99109.28;4896372;29;20041;-84
2021/08/18 16:31:53;;;;;;;33.70;22.37;;;;;;;22.10;78.87;99102.50;4905887;29;20115;-84
2021/08/18 16:34:20;;;;;;;35.70;23.42;;;;;;;22.14;79.67;99113.66;4897233;29;20790;-85
2021/08/18 16:36:47;;;;;;;35.97;23.27;;;;;;;22.21;79.18;99122.84;4908986;29;20304;-85
2021/08/18 16:39:14;;;;;;;37.05;23.85;;;;;;;22.15;79.67;99096.59;4914361;29;20071;-84
2021/08/18 16:41:40;;;;;;;36.45;23.23;;;;;;;22.13;78.73;99098.16;4914411;29;20044;-84
2021/08/18 16:44:06;;;;;;;35.63;23.40;;;;;;;22.19;78.45;99094.59;4914343;29;20051;-83
2021/08/18 16:46:32;;;;;;;44.28;24.50;;;;;;;22.15;79.49;99085.47;4913833;29;20040;-84
2021/08/18 16:49:01;;;;;;;34.85;24.55;;;;;;;22.18;79.12;99097.78;4914206;29;20044;-84
2021/08/18 16:51:27;;;;;;;38.13;23.25;;;;;;;22.10;78.75;99093.38;4913543;29;20072;-84
2021/08/18 16:53:53;;;;;;;40.60;23.83;;;;;;;22.14;79.27;99111.66;4913843;29;20052;-85
2021/08/18 16:56:20;;;;;;;37.58;24.80;;;;;;;22.00;79.02;99100.50;4912921;29;20059;-84
2021/08/18 16:58:46;;;;;;;35.13;23.07;;;;;;;21.90;79.71;99115.22;4913071;29;20044;-85
2021/08/18 17:01:13;;;;;;;34.70;18.15;;;;;;;21.70;79.26;99104.41;4912820;29;20490;-84
2021/08/18 17:03:39;;;;;;;29.03;17.70;;;;;;;21.71;79.26;99103.22;4913079;29;20139;-85
2021/08/18 17:06:05;;;;;;;32.97;18.42;;;;;;;21.66;79.48;99105.63;4912124;29;20296;-85
2021/08/18 17:08:33;;;;;;;28.70;17.63;;;;;;;21.74;79.50;99105.22;4895787;29;20386;-85
2021/08/18 17:11:02;;;;;;;32.15;17.67;;;;;;;21.70;79.61;99112.78;4911681;29;20048;-90
2021/08/18 17:13:30;;;;;;;26.35;17.92;;;;;;;21.57;79.82;99100.41;4904428;29;20474;-85
2021/08/18 17:15:56;;;;;;;25.38;18.15;;;;;;;21.59;79.56;99103.59;4880452;29;20085;-85
2021/08/18 17:18:22;;;;;;;;;;;;;;;21.60;79.97;99113.53;4911477;29;20044;-83
2021/08/18 17:20:48;;;;;;;32.47;20.90;;;;;;;21.60;79.95;99104.41;4911742;29;20289;-87
2021/08/18 17:23:15;;;;;;;33.65;19.63;;;;;;;21.52;79.81;99098.00;4882448;29;20044;-89
2021/08/18 17:25:43;;;;;;;31.50;18.75;;;;;;;21.61;79.79;99101.22;4879594;29;20469;-89
2021/08/18 17:28:09;;;;;;;33.30;20.10;;;;;;;21.47;80.07;99084.47;4894664;29;20048;-86
2021/08/18 17:30:35;;;;;;;28.30;19.65;;;;;;;21.54;79.81;99104.75;4910681;29;20043;-87
2021/08/18 17:33:02;;;;;;;30.02;20.00;;;;;;;21.50;79.89;99117.88;4895564;29;20055;-86
2021/08/18 17:35:29;;;;;;;32.92;21.23;;;;;;;21.33;80.03;99097.09;4899937;29;20041;-87
2021/08/18 17:37:56;;;;;;;34.10;20.40;;;;;;;21.42;80.44;99121.00;4874684;29;20067;-81
2021/08/18 17:41:13;;;;;;;31.50;20.30;;;;;;;21.50;80.35;99120.66;4889371;29;20430;-95
2021/08/18 17:43:44;;;;;;;32.80;20.50;;;;;;;21.40;80.19;99124.19;5179658;23;20421;-86
2021/08/18 17:46:10;;;;;;;31.98;21.77;;;;;;;21.41;80.25;99134.09;4899155;29;20536;-86
2021/08/18 17:48:37;;;;;;;37.58;24.00;;;;;;;21.43;80.42;99122.63;4891270;29;20510;-94
2021/08/18 17:51:04;;;;;;;35.50;24.58;;;;;;;21.44;80.12;99126.97;4880150;29;20152;-85
2021/08/18 17:53:30;;;;;;;37.72;22.17;;;;;;;21.55;79.60;99134.16;4880088;29;20053;-85
2021/08/18 17:55:58;;;;;;;36.85;22.17;;;;;;;21.54;79.54;99124.22;4862621;29;20407;-85
2021/08/18 17:58:24;;;;;;;43.97;26.70;;;;;;;21.50;79.61;99133.75;4884500;29;20047;-85
2021/08/18 18:00:53;;;;;;;45.17;26.77;;;;;;;21.25;79.88;99111.34;4864355;29;20064;-89
2021/08/18 18:03:20;;;;;;;40.50;24.60;;;;;;;21.32;80.35;99128.91;4867651;29;20036;-91
2021/08/18 18:05:47;;;;;;;49.72;24.30;;;;;;;21.28;80.03;99108.59;4865632;29;20135;-90
2021/08/18 18:08:13;;;;;;;49.43;28.77;;;;;;;21.30;80.16;99103.44;4865760;29;20192;-89
2021/08/18 18:10:40;;;;;;;;;;;;;;;21.37;80.23;99130.53;4879139;29;20092;-88
2021/08/18 18:13:08;;;;;;;46.83;28.63;;;;;;;21.32;80.44;99117.78;4877932;29;20022;-89
2021/08/18 18:15:35;;;;;;;43.78;28.90;;;;;;;21.40;80.43;99128.94;4876309;29;20045;-89
2021/08/18 18:18:02;;;;;;;50.08;31.85;;;;;;;21.38;80.74;99123.75;4887397;29;20049;-89
2021/08/18 18:20:28;;;;;;;;;;;;;;;21.36;80.61;99117.81;4895604;29;20040;-90
2021/08/18 18:22:56;;;;;;;53.58;32.80;;;;;;;21.23;81.15;99114.53;4881024;29;19927;-91
2021/08/18 18:25:25;;;;;;;54.85;33.65;;;;;;;21.16;81.23;99100.63;4845901;29;20041;-89
2021/08/18 18:27:51;;;;;;;57.95;34.67;;;;;;;21.28;81.20;99121.69;4876793;29;20185;-88
2021/08/18 18:30:19;;;;;;;49.65;33.53;;;;;;;21.11;81.10;99095.41;4875756;29;20044;-90
2021/08/18 18:32:47;;;;;;;51.00;32.10;;;;;;;21.18;81.06;99120.47;4878060;29;20051;-86
2021/08/18 18:35:13;;;;;;;54.08;31.55;;;;;;;21.13;81.00;99097.81;4891936;29;20307;-89
2021/08/18 18:37:44;;;;;;;40.93;28.40;;;;;;;21.04;80.77;99084.25;4862664;29;20392;-91
2021/08/18 18:40:20;;;;;;;49.08;30.38;;;;;;;21.21;80.82;99111.34;4859843;29;20056;-88
2021/08/18 18:42:50;;;;;;;38.47;26.42;;;;;;;21.09;80.19;99104.16;4888382;29;20049;-91
2021/08/18 18:45:24;;;;;;;48.88;29.88;;;;;;;21.21;80.48;99118.88;4862149;29;20515;-90
2021/08/18 18:47:51;;;;;;;46.17;28.65;;;;;;;21.20;80.48;99123.66;4861781;29;20033;-90
2021/08/18 18:50:20;;;;;;;46.92;31.00;;;;;;;20.97;80.73;99093.34;4863455;29;20222;-92
2021/08/18 18:52:51;;;;;;;50.03;32.03;;;;;;;20.95;81.01;99092.16;4862403;29;20518;-91
2021/08/18 18:55:19;;;;;;;50.03;33.33;;;;;;;20.96;80.39;99085.38;4877966;29;20096;-90
2021/08/18 18:57:46;;;;;;;52.30;32.63;;;;;;;21.21;80.39;99116.09;4860557;29;20612;-88
2021/08/18 19:00:15;;;;;;;47.88;32.70;;;;;;;21.17;80.07;99104.19;4884226;29;20289;-86
2021/08/18 19:02:43;;;;;;;54.13;34.63;;;;;;;21.21;80.16;99091.09;4873516;29;20517;-86
2021/08/18 19:05:10;;;;;;;59.80;36.13;;;;;;;21.09;80.22;99079.13;4878130;29;20047;-86
2021/08/18 19:07:36;;;;;;;;;;;;;;;21.19;80.24;99090.66;4885192;29;20041;-92
2021/08/18 19:10:10;;;;;;;53.42;32.55;;;;;;;21.08;80.55;99071.97;4877196;29;19970;-93
2021/08/18 19:12:37;;;;;;;48.08;33.35;;;;;;;21.01;80.39;99066.38;4850483;29;20062;-94
2021/08/18 19:15:07;;;;;;;50.50;33.75;;;;;;;21.00;79.98;99067.56;4852547;29;20037;-93
2021/08/18 19:17:33;;;;;;;47.45;33.70;;;;;;;20.99;79.93;99065.97;4876623;29;20508;-96
2021/08/18 19:20:01;;;;;;;55.35;34.03;;;;;;;21.11;80.01;99087.88;4866587;29;20478;-92
2021/08/18 19:22:29;;;;;;;61.38;38.03;;;;;;;21.07;79.57;99077.94;4866830;29;20510;-94
2021/08/18 19:24:56;;;;;;;65.07;38.83;;;;;;;21.22;80.06;99092.69;4867217;29;20546;-92
2021/08/18 19:27:26;;;;;;;64.38;38.33;;;;;;;21.26;79.74;99087.94;4868003;29;20096;-94
2021/08/18 19:29:55;;;;;;;60.92;37.10;;;;;;;21.27;80.02;99089.53;4861482;29;20041;-78
2021/08/18 19:32:28;;;;;;;74.35;38.30;;;;;;;21.27;80.20;99079.22;4879647;29;20051;-94